Airfield :
LOGIN :

Register | Disclaimer

   EN    FR    IT 

 










Legend :    VFR   Marginal VFR   IFR   Intensive IFR   Very Intensive IFR
Visi :
Ceiling :
>= 8 km
>= 3000ft
5 to 8 km
1000 to 3000 ft
1500m to 5 km
500 to 1000 ft
800 to 1500m
200 to 500 ft
< 800m
< 200 ft
Symbols :   Thunderstorms  Fog  Heavy snow  Heavy precipitations  Wind > 20 kt
SIGMETs :     Misc.  Thunderstorms  Icing  Turbulence  Mountain Waves  Volcanic Ashes






- Airport Elevation : 699 ft
- IATA code : PAD


EDLP - Paderborn Lippstadt

CURRENT METAR :
  • 200320Z VRB01KT 7000 FEW003 OVC029 02/02 Q1045

EXPIRED METARs :
  • 200250Z VRB02KT 8000 OVC004 02/02 Q1045
  • 200220Z VRB02KT 9999 SCT004 OVC031 02/01 Q1045
  • 200150Z VRB02KT 9999 FEW025 BKN031 02/01 Q1045
  • 200120Z 27003KT 220V300 9000 SCT004 OVC027 02/02 Q1045
  • 200050Z 27003KT 230V310 9999 SCT006 BKN008 OVC013 02/02 Q1045

TAF AMD TAF EDLP
Valid from the 20 at 01:00 until the 21 at 00:00 UTC


200150Z 2001/2024 VRB03KT 9999 BKN020
BECMG 2003/2006 4000 BR BKN006
TEMPO 2006/2011 1000 BR BKN001
BECMG 2011/2014 8000 BKN020
BECMG 2018/2020 18005KT



MET'MAP, your aeronautical weather chart ! - Copyright ORBIFLY December 2007 - Disclaimer

ORBIFLY MET'MAP TEAM :

Programming & Development : Alexandra Zaïnal
Concept & original design : Baudouin d'Aumeries
Assistance for programming : Marc-Olivier Méhu
Technical & hardware support : Manuel Goepfert

Contact : metmap@orbifly.com




SOURCES & CREDITS :

   NOAA